sensor_id;sensor_type;location;lat;lon;timestamp;P1;durP1;ratioP1;P2;durP2;ratioP2
19087;SDS011;9676;50.916;13.352;2022-09-09T00:01:59;9.73;;;8.93;;
19087;SDS011;9676;50.916;13.352;2022-09-09T00:04:58;9.37;;;8.67;;
19087;SDS011;9676;50.916;13.352;2022-09-09T00:07:54;9.50;;;8.70;;
19087;SDS011;9676;50.916;13.352;2022-09-09T00:10:51;9.30;;;8.60;;
19087;SDS011;9676;50.916;13.352;2022-09-09T00:13:48;9.50;;;8.73;;
19087;SDS011;9676;50.916;13.352;2022-09-09T00:16:42;9.50;;;8.80;;
19087;SDS011;9676;50.916;13.352;2022-09-09T00:19:39;9.40;;;8.70;;
19087;SDS011;9676;50.916;13.352;2022-09-09T00:22:38;9.37;;;8.63;;
19087;SDS011;9676;50.916;13.352;2022-09-09T00:25:37;9.43;;;8.73;;
19087;SDS011;9676;50.916;13.352;2022-09-09T00:28:41;9.27;;;8.57;;
19087;SDS011;9676;50.916;13.352;2022-09-09T00:31:41;9.30;;;8.60;;
19087;SDS011;9676;50.916;13.352;2022-09-09T00:34:30;9.13;;;8.43;;
19087;SDS011;9676;50.916;13.352;2022-09-09T00:37:22;9.40;;;8.70;;
19087;SDS011;9676;50.916;13.352;2022-09-09T00:40:18;9.50;;;8.80;;
19087;SDS011;9676;50.916;13.352;2022-09-09T00:43:20;9.40;;;8.60;;
19087;SDS011;9676;50.916;13.352;2022-09-09T00:46:25;9.73;;;8.93;;
19087;SDS011;9676;50.916;13.352;2022-09-09T00:49:36;9.50;;;8.73;;
19087;SDS011;9676;50.916;13.352;2022-09-09T00:52:36;9.50;;;8.70;;
19087;SDS011;9676;50.916;13.352;2022-09-09T00:55:38;9.40;;;8.70;;
19087;SDS011;9676;50.916;13.352;2022-09-09T00:58:35;9.30;;;8.60;;
19087;SDS011;9676;50.916;13.352;2022-09-09T01:01:26;9.40;;;8.70;;
19087;SDS011;9676;50.916;13.352;2022-09-09T01:04:16;9.30;;;8.60;;
19087;SDS011;9676;50.916;13.352;2022-09-09T01:07:15;9.43;;;8.63;;
19087;SDS011;9676;50.916;13.352;2022-09-09T01:10:07;9.20;;;8.50;;
19087;SDS011;9676;50.916;13.352;2022-09-09T01:13:08;9.50;;;8.70;;
19087;SDS011;9676;50.916;13.352;2022-09-09T01:16:07;8.97;;;8.37;;
19087;SDS011;9676;50.916;13.352;2022-09-09T01:19:01;9.50;;;8.70;;
19087;SDS011;9676;50.916;13.352;2022-09-09T01:22:00;9.63;;;8.90;;
19087;SDS011;9676;50.916;13.352;2022-09-09T01:25:07;9.77;;;8.87;;
19087;SDS011;9676;50.916;13.352;2022-09-09T01:28:34;9.40;;;8.70;;
19087;SDS011;9676;50.916;13.352;2022-09-09T01:31:30;9.83;;;8.93;;
19087;SDS011;9676;50.916;13.352;2022-09-09T01:34:26;9.77;;;8.90;;
19087;SDS011;9676;50.916;13.352;2022-09-09T01:37:19;9.40;;;8.70;;
19087;SDS011;9676;50.916;13.352;2022-09-09T01:40:08;9.40;;;8.70;;
19087;SDS011;9676;50.916;13.352;2022-09-09T01:42:59;9.20;;;8.50;;
19087;SDS011;9676;50.916;13.352;2022-09-09T01:45:50;9.20;;;8.50;;
19087;SDS011;9676;50.916;13.352;2022-09-09T01:48:43;9.50;;;8.70;;
19087;SDS011;9676;50.916;13.352;2022-09-09T01:51:35;9.57;;;8.77;;
19087;SDS011;9676;50.916;13.352;2022-09-09T01:54:29;10.10;;;9.10;;
19087;SDS011;9676;50.916;13.352;2022-09-09T01:57:27;9.83;;;8.97;;
19087;SDS011;9676;50.916;13.352;2022-09-09T02:00:22;9.47;;;8.67;;
19087;SDS011;9676;50.916;13.352;2022-09-09T02:03:19;9.90;;;9.00;;
19087;SDS011;9676;50.916;13.352;2022-09-09T02:06:34;9.63;;;8.83;;
19087;SDS011;9676;50.916;13.352;2022-09-09T02:09:37;9.50;;;8.70;;
19087;SDS011;9676;50.916;13.352;2022-09-09T02:12:30;9.37;;;8.67;;
19087;SDS011;9676;50.916;13.352;2022-09-09T02:15:22;9.07;;;8.40;;
19087;SDS011;9676;50.916;13.352;2022-09-09T02:18:23;9.30;;;8.60;;
19087;SDS011;9676;50.916;13.352;2022-09-09T02:21:17;9.50;;;8.70;;
19087;SDS011;9676;50.916;13.352;2022-09-09T02:24:07;9.33;;;8.63;;
19087;SDS011;9676;50.916;13.352;2022-09-09T02:27:05;9.40;;;8.70;;
19087;SDS011;9676;50.916;13.352;2022-09-09T02:29:57;9.50;;;8.70;;
19087;SDS011;9676;50.916;13.352;2022-09-09T02:32:56;9.60;;;8.80;;
19087;SDS011;9676;50.916;13.352;2022-09-09T02:36:03;9.37;;;8.67;;
19087;SDS011;9676;50.916;13.352;2022-09-09T02:38:57;9.50;;;8.70;;
19087;SDS011;9676;50.916;13.352;2022-09-09T02:41:49;9.30;;;8.60;;
19087;SDS011;9676;50.916;13.352;2022-09-09T02:44:46;9.30;;;8.60;;
19087;SDS011;9676;50.916;13.352;2022-09-09T02:47:37;9.23;;;8.53;;
19087;SDS011;9676;50.916;13.352;2022-09-09T02:50:34;8.90;;;8.30;;
19087;SDS011;9676;50.916;13.352;2022-09-09T02:53:33;9.40;;;8.60;;
19087;SDS011;9676;50.916;13.352;2022-09-09T02:56:31;9.63;;;8.80;;
19087;SDS011;9676;50.916;13.352;2022-09-09T02:59:26;9.37;;;8.67;;
19087;SDS011;9676;50.916;13.352;2022-09-09T03:02:17;9.70;;;8.80;;
19087;SDS011;9676;50.916;13.352;2022-09-09T03:05:11;9.20;;;8.50;;
19087;SDS011;9676;50.916;13.352;2022-09-09T03:08:01;9.07;;;8.37;;
19087;SDS011;9676;50.916;13.352;2022-09-09T03:10:52;9.27;;;8.53;;
19087;SDS011;9676;50.916;13.352;2022-09-09T03:13:45;9.40;;;8.60;;
19087;SDS011;9676;50.916;13.352;2022-09-09T03:16:36;9.20;;;8.50;;
19087;SDS011;9676;50.916;13.352;2022-09-09T03:19:26;9.23;;;8.53;;
19087;SDS011;9676;50.916;13.352;2022-09-09T03:22:17;9.17;;;8.50;;
19087;SDS011;9676;50.916;13.352;2022-09-09T03:25:07;9.20;;;8.50;;
19087;SDS011;9676;50.916;13.352;2022-09-09T03:27:58;9.17;;;8.47;;
19087;SDS011;9676;50.916;13.352;2022-09-09T03:30:49;9.40;;;8.60;;
19087;SDS011;9676;50.916;13.352;2022-09-09T03:33:39;9.30;;;8.60;;
19087;SDS011;9676;50.916;13.352;2022-09-09T03:36:32;9.30;;;8.53;;
19087;SDS011;9676;50.916;13.352;2022-09-09T03:39:22;9.67;;;8.87;;
19087;SDS011;9676;50.916;13.352;2022-09-09T03:42:12;9.40;;;8.60;;
19087;SDS011;9676;50.916;13.352;2022-09-09T03:45:09;9.37;;;8.67;;
19087;SDS011;9676;50.916;13.352;2022-09-09T03:48:01;9.30;;;8.60;;
19087;SDS011;9676;50.916;13.352;2022-09-09T03:50:53;9.30;;;8.60;;
19087;SDS011;9676;50.916;13.352;2022-09-09T03:53:45;9.40;;;8.60;;
19087;SDS011;9676;50.916;13.352;2022-09-09T03:56:35;9.43;;;8.63;;
19087;SDS011;9676;50.916;13.352;2022-09-09T03:59:25;9.23;;;8.53;;
19087;SDS011;9676;50.916;13.352;2022-09-09T04:02:16;9.63;;;8.83;;
19087;SDS011;9676;50.916;13.352;2022-09-09T04:05:05;9.60;;;8.80;;
19087;SDS011;9676;50.916;13.352;2022-09-09T04:07:57;9.20;;;8.50;;
19087;SDS011;9676;50.916;13.352;2022-09-09T04:10:47;9.37;;;8.60;;
19087;SDS011;9676;50.916;13.352;2022-09-09T04:13:38;9.20;;;8.50;;
19087;SDS011;9676;50.916;13.352;2022-09-09T04:16:29;9.47;;;8.70;;
19087;SDS011;9676;50.916;13.352;2022-09-09T04:19:21;9.37;;;8.60;;
19087;SDS011;9676;50.916;13.352;2022-09-09T04:22:10;9.20;;;8.50;;
19087;SDS011;9676;50.916;13.352;2022-09-09T04:25:00;9.30;;;8.60;;
19087;SDS011;9676;50.916;13.352;2022-09-09T04:27:52;9.37;;;8.63;;
19087;SDS011;9676;50.916;13.352;2022-09-09T04:30:44;9.50;;;8.70;;
19087;SDS011;9676;50.916;13.352;2022-09-09T04:33:34;8.97;;;8.30;;
19087;SDS011;9676;50.916;13.352;2022-09-09T04:36:29;9.27;;;8.57;;
19087;SDS011;9676;50.916;13.352;2022-09-09T04:39:22;9.50;;;8.70;;
19087;SDS011;9676;50.916;13.352;2022-09-09T04:42:11;9.20;;;8.50;;
19087;SDS011;9676;50.916;13.352;2022-09-09T04:45:03;9.30;;;8.60;;
19087;SDS011;9676;50.916;13.352;2022-09-09T04:47:53;9.47;;;8.63;;
19087;SDS011;9676;50.916;13.352;2022-09-09T04:50:44;9.20;;;8.50;;
19087;SDS011;9676;50.916;13.352;2022-09-09T04:53:43;9.20;;;8.50;;
19087;SDS011;9676;50.916;13.352;2022-09-09T04:56:34;9.30;;;8.60;;
19087;SDS011;9676;50.916;13.352;2022-09-09T04:59:23;9.27;;;8.57;;
19087;SDS011;9676;50.916;13.352;2022-09-09T05:02:16;9.20;;;8.50;;
19087;SDS011;9676;50.916;13.352;2022-09-09T05:05:06;9.10;;;8.40;;
19087;SDS011;9676;50.916;13.352;2022-09-09T05:08:00;9.63;;;8.87;;
19087;SDS011;9676;50.916;13.352;2022-09-09T05:10:52;9.30;;;8.50;;
19087;SDS011;9676;50.916;13.352;2022-09-09T05:13:42;9.60;;;8.70;;
19087;SDS011;9676;50.916;13.352;2022-09-09T05:16:32;17.40;;;12.67;;
19087;SDS011;9676;50.916;13.352;2022-09-09T05:19:22;17.47;;;12.67;;
19087;SDS011;9676;50.916;13.352;2022-09-09T05:22:13;13.50;;;11.00;;
19087;SDS011;9676;50.916;13.352;2022-09-09T05:25:09;11.13;;;10.03;;
19087;SDS011;9676;50.916;13.352;2022-09-09T05:28:01;10.60;;;9.60;;
19087;SDS011;9676;50.916;13.352;2022-09-09T05:30:57;10.13;;;9.23;;
19087;SDS011;9676;50.916;13.352;2022-09-09T05:33:50;10.10;;;9.13;;
19087;SDS011;9676;50.916;13.352;2022-09-09T05:36:40;9.30;;;8.53;;
19087;SDS011;9676;50.916;13.352;2022-09-09T05:39:29;10.33;;;9.43;;
19087;SDS011;9676;50.916;13.352;2022-09-09T05:42:20;9.97;;;8.97;;
19087;SDS011;9676;50.916;13.352;2022-09-09T05:45:11;9.40;;;8.50;;
19087;SDS011;9676;50.916;13.352;2022-09-09T05:48:00;9.47;;;8.67;;
19087;SDS011;9676;50.916;13.352;2022-09-09T05:50:52;9.70;;;8.80;;
19087;SDS011;9676;50.916;13.352;2022-09-09T05:53:43;9.47;;;8.63;;
19087;SDS011;9676;50.916;13.352;2022-09-09T05:56:34;9.10;;;8.40;;
19087;SDS011;9676;50.916;13.352;2022-09-09T05:59:23;12.00;;;10.07;;
19087;SDS011;9676;50.916;13.352;2022-09-09T06:02:16;10.37;;;9.37;;
19087;SDS011;9676;50.916;13.352;2022-09-09T06:05:06;10.37;;;9.37;;
19087;SDS011;9676;50.916;13.352;2022-09-09T06:07:58;9.63;;;8.73;;
19087;SDS011;9676;50.916;13.352;2022-09-09T06:10:47;9.50;;;8.63;;
19087;SDS011;9676;50.916;13.352;2022-09-09T06:13:37;9.30;;;8.50;;
19087;SDS011;9676;50.916;13.352;2022-09-09T06:16:27;9.47;;;8.67;;
19087;SDS011;9676;50.916;13.352;2022-09-09T06:19:21;9.40;;;8.60;;
19087;SDS011;9676;50.916;13.352;2022-09-09T06:22:16;10.23;;;8.77;;
19087;SDS011;9676;50.916;13.352;2022-09-09T06:25:06;10.07;;;9.10;;
19087;SDS011;9676;50.916;13.352;2022-09-09T06:27:59;9.23;;;8.43;;
19087;SDS011;9676;50.916;13.352;2022-09-09T06:30:54;9.20;;;8.50;;
19087;SDS011;9676;50.916;13.352;2022-09-09T06:33:48;11.67;;;8.37;;
19087;SDS011;9676;50.916;13.352;2022-09-09T06:36:41;9.23;;;8.40;;
19087;SDS011;9676;50.916;13.352;2022-09-09T06:39:32;9.10;;;8.30;;
19087;SDS011;9676;50.916;13.352;2022-09-09T06:42:21;9.30;;;8.40;;
19087;SDS011;9676;50.916;13.352;2022-09-09T06:45:36;9.20;;;8.40;;
19087;SDS011;9676;50.916;13.352;2022-09-09T06:48:28;9.10;;;8.20;;
19087;SDS011;9676;50.916;13.352;2022-09-09T06:51:18;9.00;;;8.10;;
19087;SDS011;9676;50.916;13.352;2022-09-09T06:54:12;10.80;;;8.30;;
19087;SDS011;9676;50.916;13.352;2022-09-09T06:57:04;8.90;;;8.10;;
19087;SDS011;9676;50.916;13.352;2022-09-09T07:00:16;8.60;;;7.90;;
19087;SDS011;9676;50.916;13.352;2022-09-09T07:03:06;8.80;;;8.00;;
19087;SDS011;9676;50.916;13.352;2022-09-09T07:05:56;8.70;;;7.90;;
19087;SDS011;9676;50.916;13.352;2022-09-09T07:08:48;8.67;;;7.80;;
19087;SDS011;9676;50.916;13.352;2022-09-09T07:11:47;8.40;;;7.70;;
19087;SDS011;9676;50.916;13.352;2022-09-09T07:14:41;8.70;;;7.90;;
19087;SDS011;9676;50.916;13.352;2022-09-09T07:17:31;8.90;;;8.10;;
19087;SDS011;9676;50.916;13.352;2022-09-09T07:20:20;8.97;;;8.13;;
19087;SDS011;9676;50.916;13.352;2022-09-09T07:23:10;8.90;;;8.10;;
19087;SDS011;9676;50.916;13.352;2022-09-09T07:26:00;8.80;;;8.00;;
19087;SDS011;9676;50.916;13.352;2022-09-09T07:28:51;8.90;;;8.10;;
19087;SDS011;9676;50.916;13.352;2022-09-09T07:31:42;9.00;;;8.20;;
19087;SDS011;9676;50.916;13.352;2022-09-09T07:34:36;10.40;;;8.40;;
19087;SDS011;9676;50.916;13.352;2022-09-09T07:37:26;9.00;;;8.10;;
19087;SDS011;9676;50.916;13.352;2022-09-09T07:40:15;9.13;;;8.30;;
19087;SDS011;9676;50.916;13.352;2022-09-09T07:43:05;8.93;;;8.13;;
19087;SDS011;9676;50.916;13.352;2022-09-09T07:45:58;9.20;;;8.40;;
19087;SDS011;9676;50.916;13.352;2022-09-09T07:48:51;9.30;;;8.40;;
19087;SDS011;9676;50.916;13.352;2022-09-09T07:51:47;9.13;;;8.33;;
19087;SDS011;9676;50.916;13.352;2022-09-09T07:54:38;9.10;;;8.20;;
19087;SDS011;9676;50.916;13.352;2022-09-09T07:57:27;11.53;;;8.40;;
19087;SDS011;9676;50.916;13.352;2022-09-09T08:00:18;9.17;;;8.27;;
19087;SDS011;9676;50.916;13.352;2022-09-09T08:03:14;9.30;;;8.50;;
19087;SDS011;9676;50.916;13.352;2022-09-09T08:06:05;9.00;;;8.20;;
19087;SDS011;9676;50.916;13.352;2022-09-09T08:08:56;9.30;;;8.40;;
19087;SDS011;9676;50.916;13.352;2022-09-09T08:11:46;9.20;;;8.30;;
19087;SDS011;9676;50.916;13.352;2022-09-09T08:14:37;11.20;;;10.10;;
19087;SDS011;9676;50.916;13.352;2022-09-09T08:17:27;11.33;;;10.20;;
19087;SDS011;9676;50.916;13.352;2022-09-09T08:20:21;12.90;;;11.53;;
19087;SDS011;9676;50.916;13.352;2022-09-09T08:23:11;15.50;;;10.80;;
19087;SDS011;9676;50.916;13.352;2022-09-09T08:26:04;11.20;;;9.97;;
19087;SDS011;9676;50.916;13.352;2022-09-09T08:28:57;9.60;;;8.70;;
19087;SDS011;9676;50.916;13.352;2022-09-09T08:31:48;9.97;;;9.07;;
19087;SDS011;9676;50.916;13.352;2022-09-09T08:34:42;9.23;;;8.33;;
19087;SDS011;9676;50.916;13.352;2022-09-09T08:37:38;9.77;;;8.67;;
19087;SDS011;9676;50.916;13.352;2022-09-09T08:40:28;11.60;;;10.30;;
19087;SDS011;9676;50.916;13.352;2022-09-09T08:43:22;11.30;;;10.10;;
19087;SDS011;9676;50.916;13.352;2022-09-09T08:46:13;10.47;;;9.47;;
19087;SDS011;9676;50.916;13.352;2022-09-09T08:49:24;9.90;;;8.90;;
19087;SDS011;9676;50.916;13.352;2022-09-09T08:52:47;9.80;;;8.80;;
19087;SDS011;9676;50.916;13.352;2022-09-09T08:55:45;9.10;;;8.30;;
19087;SDS011;9676;50.916;13.352;2022-09-09T08:58:42;9.03;;;8.30;;
19087;SDS011;9676;50.916;13.352;2022-09-09T09:01:42;9.20;;;8.40;;
19087;SDS011;9676;50.916;13.352;2022-09-09T09:05:05;8.90;;;8.10;;
19087;SDS011;9676;50.916;13.352;2022-09-09T09:08:07;9.07;;;8.27;;
19087;SDS011;9676;50.916;13.352;2022-09-09T09:11:07;9.17;;;8.30;;
19087;SDS011;9676;50.916;13.352;2022-09-09T09:13:57;9.50;;;8.60;;
19087;SDS011;9676;50.916;13.352;2022-09-09T09:16:53;9.43;;;8.10;;
19087;SDS011;9676;50.916;13.352;2022-09-09T09:19:48;9.33;;;8.43;;
19087;SDS011;9676;50.916;13.352;2022-09-09T09:22:39;9.33;;;8.43;;
19087;SDS011;9676;50.916;13.352;2022-09-09T09:25:39;9.03;;;8.23;;
19087;SDS011;9676;50.916;13.352;2022-09-09T09:28:33;9.20;;;8.30;;
19087;SDS011;9676;50.916;13.352;2022-09-09T09:31:33;9.13;;;8.30;;
19087;SDS011;9676;50.916;13.352;2022-09-09T09:34:22;8.90;;;8.10;;
19087;SDS011;9676;50.916;13.352;2022-09-09T09:37:15;9.00;;;8.10;;
19087;SDS011;9676;50.916;13.352;2022-09-09T09:40:13;9.63;;;8.50;;
19087;SDS011;9676;50.916;13.352;2022-09-09T09:43:06;10.63;;;8.60;;
19087;SDS011;9676;50.916;13.352;2022-09-09T09:46:17;9.30;;;8.40;;
19087;SDS011;9676;50.916;13.352;2022-09-09T09:49:12;9.00;;;8.20;;
19087;SDS011;9676;50.916;13.352;2022-09-09T09:52:04;9.97;;;8.10;;
19087;SDS011;9676;50.916;13.352;2022-09-09T09:54:56;9.37;;;8.47;;
19087;SDS011;9676;50.916;13.352;2022-09-09T09:57:54;9.70;;;8.80;;
19087;SDS011;9676;50.916;13.352;2022-09-09T10:01:00;8.80;;;7.93;;
19087;SDS011;9676;50.916;13.352;2022-09-09T10:03:51;8.47;;;7.60;;
19087;SDS011;9676;50.916;13.352;2022-09-09T10:06:41;8.80;;;8.00;;
19087;SDS011;9676;50.916;13.352;2022-09-09T10:09:31;9.40;;;7.93;;
19087;SDS011;9676;50.916;13.352;2022-09-09T10:12:24;9.30;;;8.30;;
19087;SDS011;9676;50.916;13.352;2022-09-09T10:15:29;28.20;;;20.20;;
19087;SDS011;9676;50.916;13.352;2022-09-09T10:18:41;23.37;;;20.13;;
19087;SDS011;9676;50.916;13.352;2022-09-09T10:21:53;15.30;;;13.70;;
19087;SDS011;9676;50.916;13.352;2022-09-09T10:28:22;10.83;;;9.80;;
19087;SDS011;9676;50.916;13.352;2022-09-09T10:31:52;9.90;;;8.90;;
19087;SDS011;9676;50.916;13.352;2022-09-09T10:34:57;9.80;;;8.80;;
19087;SDS011;9676;50.916;13.352;2022-09-09T10:37:55;8.90;;;8.07;;
19087;SDS011;9676;50.916;13.352;2022-09-09T10:41:13;8.90;;;8.10;;
19087;SDS011;9676;50.916;13.352;2022-09-09T10:44:29;9.10;;;8.30;;
19087;SDS011;9676;50.916;13.352;2022-09-09T10:47:38;8.40;;;7.70;;
19087;SDS011;9676;50.916;13.352;2022-09-09T10:50:45;8.63;;;7.90;;
19087;SDS011;9676;50.916;13.352;2022-09-09T10:53:52;8.73;;;7.80;;
19087;SDS011;9676;50.916;13.352;2022-09-09T10:57:08;8.10;;;7.40;;
19087;SDS011;9676;50.916;13.352;2022-09-09T11:00:05;8.43;;;7.67;;
19087;SDS011;9676;50.916;13.352;2022-09-09T11:03:04;8.30;;;7.60;;
19087;SDS011;9676;50.916;13.352;2022-09-09T11:05:59;8.60;;;7.80;;
19087;SDS011;9676;50.916;13.352;2022-09-09T11:08:53;8.30;;;7.60;;
19087;SDS011;9676;50.916;13.352;2022-09-09T11:11:47;8.40;;;7.70;;
19087;SDS011;9676;50.916;13.352;2022-09-09T11:14:42;8.30;;;7.60;;
19087;SDS011;9676;50.916;13.352;2022-09-09T11:17:36;8.30;;;7.60;;
19087;SDS011;9676;50.916;13.352;2022-09-09T11:20:34;8.40;;;7.70;;
19087;SDS011;9676;50.916;13.352;2022-09-09T11:23:26;8.50;;;7.70;;
19087;SDS011;9676;50.916;13.352;2022-09-09T11:26:30;8.10;;;7.40;;
19087;SDS011;9676;50.916;13.352;2022-09-09T11:29:36;8.27;;;7.60;;
19087;SDS011;9676;50.916;13.352;2022-09-09T11:32:59;8.00;;;7.40;;
19087;SDS011;9676;50.916;13.352;2022-09-09T11:36:21;8.60;;;7.80;;
19087;SDS011;9676;50.916;13.352;2022-09-09T11:43:01;8.40;;;7.80;;
19087;SDS011;9676;50.916;13.352;2022-09-09T11:45:54;8.37;;;7.67;;
19087;SDS011;9676;50.916;13.352;2022-09-09T11:48:57;8.20;;;7.60;;
19087;SDS011;9676;50.916;13.352;2022-09-09T11:51:48;8.80;;;8.00;;
19087;SDS011;9676;50.916;13.352;2022-09-09T11:54:44;8.57;;;7.80;;
19087;SDS011;9676;50.916;13.352;2022-09-09T11:57:38;8.60;;;7.80;;
19087;SDS011;9676;50.916;13.352;2022-09-09T12:00:31;8.40;;;7.70;;
19087;SDS011;9676;50.916;13.352;2022-09-09T12:03:32;8.50;;;7.80;;
19087;SDS011;9676;50.916;13.352;2022-09-09T12:06:30;8.70;;;7.90;;
19087;SDS011;9676;50.916;13.352;2022-09-09T12:09:22;8.93;;;8.13;;
19087;SDS011;9676;50.916;13.352;2022-09-09T12:12:21;8.90;;;8.10;;
19087;SDS011;9676;50.916;13.352;2022-09-09T12:15:22;8.97;;;8.13;;
19087;SDS011;9676;50.916;13.352;2022-09-09T12:18:18;8.70;;;8.00;;
19087;SDS011;9676;50.916;13.352;2022-09-09T12:21:14;9.03;;;8.23;;
19087;SDS011;9676;50.916;13.352;2022-09-09T12:24:16;8.90;;;8.10;;
19087;SDS011;9676;50.916;13.352;2022-09-09T12:27:16;8.70;;;8.00;;
19087;SDS011;9676;50.916;13.352;2022-09-09T12:30:12;8.50;;;7.80;;
19087;SDS011;9676;50.916;13.352;2022-09-09T12:33:09;8.83;;;8.00;;
19087;SDS011;9676;50.916;13.352;2022-09-09T12:36:02;8.60;;;7.90;;
19087;SDS011;9676;50.916;13.352;2022-09-09T12:38:54;9.20;;;8.30;;
19087;SDS011;9676;50.916;13.352;2022-09-09T12:41:51;9.20;;;8.30;;
19087;SDS011;9676;50.916;13.352;2022-09-09T12:44:51;10.67;;;9.57;;
19087;SDS011;9676;50.916;13.352;2022-09-09T12:47:43;11.50;;;10.30;;
19087;SDS011;9676;50.916;13.352;2022-09-09T12:50:42;10.10;;;9.10;;
19087;SDS011;9676;50.916;13.352;2022-09-09T12:53:35;9.70;;;8.80;;
19087;SDS011;9676;50.916;13.352;2022-09-09T12:56:27;9.70;;;8.70;;
19087;SDS011;9676;50.916;13.352;2022-09-09T12:59:22;9.30;;;8.40;;
19087;SDS011;9676;50.916;13.352;2022-09-09T13:02:18;8.93;;;8.13;;
19087;SDS011;9676;50.916;13.352;2022-09-09T13:05:13;9.03;;;8.23;;
19087;SDS011;9676;50.916;13.352;2022-09-09T13:08:08;9.40;;;8.50;;
19087;SDS011;9676;50.916;13.352;2022-09-09T13:11:00;9.50;;;8.50;;
19087;SDS011;9676;50.916;13.352;2022-09-09T13:13:54;9.33;;;8.43;;
19087;SDS011;9676;50.916;13.352;2022-09-09T13:16:54;9.20;;;8.40;;
19087;SDS011;9676;50.916;13.352;2022-09-09T13:19:45;9.07;;;8.20;;
19087;SDS011;9676;50.916;13.352;2022-09-09T13:22:37;9.90;;;8.90;;
19087;SDS011;9676;50.916;13.352;2022-09-09T13:25:30;9.17;;;8.37;;
19087;SDS011;9676;50.916;13.352;2022-09-09T13:28:27;11.90;;;8.60;;
19087;SDS011;9676;50.916;13.352;2022-09-09T13:31:21;8.90;;;8.20;;
19087;SDS011;9676;50.916;13.352;2022-09-09T13:34:25;8.90;;;8.10;;
19087;SDS011;9676;50.916;13.352;2022-09-09T13:37:18;35.80;;;26.37;;
19087;SDS011;9676;50.916;13.352;2022-09-09T13:40:16;29.20;;;22.23;;
19087;SDS011;9676;50.916;13.352;2022-09-09T13:43:12;19.40;;;16.20;;
19087;SDS011;9676;50.916;13.352;2022-09-09T13:46:22;16.30;;;13.20;;
19087;SDS011;9676;50.916;13.352;2022-09-09T13:49:22;13.27;;;11.87;;
19087;SDS011;9676;50.916;13.352;2022-09-09T13:52:12;11.63;;;10.43;;
19087;SDS011;9676;50.916;13.352;2022-09-09T13:55:04;10.70;;;9.60;;
19087;SDS011;9676;50.916;13.352;2022-09-09T13:57:55;10.30;;;9.30;;
19087;SDS011;9676;50.916;13.352;2022-09-09T14:00:49;9.80;;;8.90;;
19087;SDS011;9676;50.916;13.352;2022-09-09T14:03:38;9.10;;;8.30;;
19087;SDS011;9676;50.916;13.352;2022-09-09T14:06:27;9.37;;;8.47;;
19087;SDS011;9676;50.916;13.352;2022-09-09T14:09:19;9.50;;;8.60;;
19087;SDS011;9676;50.916;13.352;2022-09-09T14:12:09;9.47;;;8.40;;
19087;SDS011;9676;50.916;13.352;2022-09-09T14:15:01;9.17;;;8.30;;
19087;SDS011;9676;50.916;13.352;2022-09-09T14:17:52;8.93;;;8.17;;
19087;SDS011;9676;50.916;13.352;2022-09-09T14:20:41;8.90;;;8.10;;
19087;SDS011;9676;50.916;13.352;2022-09-09T14:23:31;9.20;;;8.37;;
19087;SDS011;9676;50.916;13.352;2022-09-09T14:26:20;9.00;;;8.23;;
19087;SDS011;9676;50.916;13.352;2022-09-09T14:29:10;9.80;;;8.90;;
19087;SDS011;9676;50.916;13.352;2022-09-09T14:32:00;19.40;;;14.17;;
19087;SDS011;9676;50.916;13.352;2022-09-09T14:34:51;16.60;;;14.20;;
19087;SDS011;9676;50.916;13.352;2022-09-09T14:37:40;13.50;;;12.07;;
19087;SDS011;9676;50.916;13.352;2022-09-09T14:40:30;12.40;;;10.67;;
19087;SDS011;9676;50.916;13.352;2022-09-09T14:43:21;10.70;;;9.70;;
19087;SDS011;9676;50.916;13.352;2022-09-09T14:46:11;10.13;;;9.17;;
19087;SDS011;9676;50.916;13.352;2022-09-09T14:49:02;9.60;;;8.70;;
19087;SDS011;9676;50.916;13.352;2022-09-09T14:51:53;9.43;;;8.53;;
19087;SDS011;9676;50.916;13.352;2022-09-09T14:54:42;9.30;;;8.50;;
19087;SDS011;9676;50.916;13.352;2022-09-09T14:57:32;16.70;;;13.40;;
19087;SDS011;9676;50.916;13.352;2022-09-09T15:00:22;18.43;;;15.40;;
19087;SDS011;9676;50.916;13.352;2022-09-09T15:03:17;13.83;;;12.23;;
19087;SDS011;9676;50.916;13.352;2022-09-09T15:06:06;13.10;;;11.00;;
19087;SDS011;9676;50.916;13.352;2022-09-09T15:08:58;10.70;;;9.60;;
19087;SDS011;9676;50.916;13.352;2022-09-09T15:11:48;10.10;;;9.10;;
19087;SDS011;9676;50.916;13.352;2022-09-09T15:14:37;9.67;;;8.70;;
19087;SDS011;9676;50.916;13.352;2022-09-09T15:17:27;9.50;;;8.60;;
19087;SDS011;9676;50.916;13.352;2022-09-09T15:20:16;9.30;;;8.50;;
19087;SDS011;9676;50.916;13.352;2022-09-09T15:23:06;9.30;;;8.40;;
19087;SDS011;9676;50.916;13.352;2022-09-09T15:25:57;9.30;;;8.50;;
19087;SDS011;9676;50.916;13.352;2022-09-09T15:28:47;9.20;;;8.40;;
19087;SDS011;9676;50.916;13.352;2022-09-09T15:31:38;10.13;;;8.60;;
19087;SDS011;9676;50.916;13.352;2022-09-09T15:34:27;9.03;;;8.23;;
19087;SDS011;9676;50.916;13.352;2022-09-09T15:37:16;9.10;;;8.30;;
19087;SDS011;9676;50.916;13.352;2022-09-09T15:40:06;9.57;;;8.60;;
19087;SDS011;9676;50.916;13.352;2022-09-09T15:42:58;9.53;;;8.53;;
19087;SDS011;9676;50.916;13.352;2022-09-09T15:45:49;9.30;;;8.40;;
19087;SDS011;9676;50.916;13.352;2022-09-09T15:48:46;11.77;;;10.60;;
19087;SDS011;9676;50.916;13.352;2022-09-09T15:51:41;13.10;;;11.80;;
19087;SDS011;9676;50.916;13.352;2022-09-09T15:54:33;11.37;;;10.20;;
19087;SDS011;9676;50.916;13.352;2022-09-09T15:57:23;12.70;;;11.40;;
19087;SDS011;9676;50.916;13.352;2022-09-09T16:00:15;11.10;;;10.00;;
19087;SDS011;9676;50.916;13.352;2022-09-09T16:03:05;10.47;;;9.47;;
19087;SDS011;9676;50.916;13.352;2022-09-09T16:05:54;10.07;;;9.17;;
19087;SDS011;9676;50.916;13.352;2022-09-09T16:08:44;9.60;;;8.70;;
19087;SDS011;9676;50.916;13.352;2022-09-09T16:11:37;9.57;;;8.70;;
19087;SDS011;9676;50.916;13.352;2022-09-09T16:14:27;9.60;;;8.70;;
19087;SDS011;9676;50.916;13.352;2022-09-09T16:17:22;24.33;;;17.70;;
19087;SDS011;9676;50.916;13.352;2022-09-09T16:20:12;18.80;;;15.63;;
19087;SDS011;9676;50.916;13.352;2022-09-09T16:23:01;15.33;;;12.90;;
19087;SDS011;9676;50.916;13.352;2022-09-09T16:25:53;11.93;;;10.70;;
19087;SDS011;9676;50.916;13.352;2022-09-09T16:28:43;10.97;;;9.87;;
19087;SDS011;9676;50.916;13.352;2022-09-09T16:31:33;10.27;;;9.27;;
19087;SDS011;9676;50.916;13.352;2022-09-09T16:34:24;10.37;;;9.40;;
19087;SDS011;9676;50.916;13.352;2022-09-09T16:37:14;10.47;;;9.40;;
19087;SDS011;9676;50.916;13.352;2022-09-09T16:40:03;9.57;;;8.67;;
19087;SDS011;9676;50.916;13.352;2022-09-09T16:42:54;21.17;;;15.90;;
19087;SDS011;9676;50.916;13.352;2022-09-09T16:45:44;14.87;;;12.10;;
19087;SDS011;9676;50.916;13.352;2022-09-09T16:48:34;12.87;;;10.60;;
19087;SDS011;9676;50.916;13.352;2022-09-09T16:51:26;10.50;;;9.50;;
19087;SDS011;9676;50.916;13.352;2022-09-09T16:54:17;10.20;;;9.20;;
19087;SDS011;9676;50.916;13.352;2022-09-09T16:57:07;10.30;;;9.23;;
19087;SDS011;9676;50.916;13.352;2022-09-09T16:59:56;10.03;;;9.03;;
19087;SDS011;9676;50.916;13.352;2022-09-09T17:02:46;9.90;;;8.90;;
19087;SDS011;9676;50.916;13.352;2022-09-09T17:05:39;9.87;;;8.97;;
19087;SDS011;9676;50.916;13.352;2022-09-09T17:08:30;11.57;;;10.37;;
19087;SDS011;9676;50.916;13.352;2022-09-09T17:11:20;12.90;;;9.93;;
19087;SDS011;9676;50.916;13.352;2022-09-09T17:14:11;10.57;;;9.53;;
19087;SDS011;9676;50.916;13.352;2022-09-09T17:17:04;9.77;;;8.87;;
19087;SDS011;9676;50.916;13.352;2022-09-09T17:20:13;9.80;;;8.90;;
19087;SDS011;9676;50.916;13.352;2022-09-09T17:23:03;9.50;;;8.70;;
19087;SDS011;9676;50.916;13.352;2022-09-09T17:25:57;9.90;;;9.00;;
19087;SDS011;9676;50.916;13.352;2022-09-09T17:28:47;9.63;;;8.70;;
19087;SDS011;9676;50.916;13.352;2022-09-09T17:31:36;9.90;;;9.00;;
19087;SDS011;9676;50.916;13.352;2022-09-09T17:34:28;9.87;;;8.97;;